createdAt,value
2022-11-05T00:01:02.238Z,11.48
2022-11-05T00:04:05.875Z,10.70
2022-11-05T00:07:11.193Z,10.70
2022-11-05T00:10:19.769Z,10.15
2022-11-05T00:13:26.156Z,10.65
2022-11-05T00:16:29.783Z,10.18
2022-11-05T00:19:16.686Z,10.75
2022-11-05T00:22:20.542Z,9.98
2022-11-05T00:25:14.654Z,10.20
2022-11-05T00:28:03.813Z,15.30
2022-11-05T00:30:49.165Z,21.80
2022-11-05T00:33:34.265Z,21.52
2022-11-05T00:36:19.184Z,21.67
2022-11-05T00:39:05.815Z,17.70
2022-11-05T00:42:10.676Z,11.55
2022-11-05T00:45:01.882Z,11.02
2022-11-05T00:48:05.971Z,11.50
2022-11-05T00:50:51.307Z,10.35
2022-11-05T00:53:36.544Z,11.27
2022-11-05T00:56:21.577Z,14.48
2022-11-05T00:59:06.542Z,18.98
2022-11-05T01:01:51.858Z,21.35
2022-11-05T01:04:37.123Z,22.58
2022-11-05T01:07:22.201Z,20.90
2022-11-05T01:10:07.718Z,20.95
2022-11-05T01:12:52.672Z,20.45
2022-11-05T01:15:38.766Z,22.67
2022-11-05T01:18:25.274Z,21.98
2022-11-05T01:21:15.741Z,21.83
2022-11-05T01:24:01.244Z,20.42
2022-11-05T01:26:46.282Z,17.45
2022-11-05T01:29:31.454Z,15.25
2022-11-05T01:32:16.502Z,15.15
2022-11-05T01:35:02.185Z,14.98
2022-11-05T01:37:47.548Z,14.48
2022-11-05T01:40:32.461Z,14.98
2022-11-05T01:43:20.694Z,16.33
2022-11-05T01:46:05.845Z,18.42
2022-11-05T01:48:57.288Z,21.98
2022-11-05T01:51:46.070Z,20.92
2022-11-05T01:54:34.720Z,20.08
2022-11-05T01:57:20.128Z,21.17
2022-11-05T02:00:06.010Z,19.77
2022-11-05T02:02:50.980Z,20.40
2022-11-05T02:05:37.036Z,20.33
2022-11-05T02:08:45.877Z,17.80
2022-11-05T02:11:30.839Z,19.15
2022-11-05T02:14:16.089Z,16.35
2022-11-05T02:17:08.196Z,15.98
2022-11-05T02:20:06.335Z,16.25
2022-11-05T02:23:19.542Z,16.70
2022-11-05T02:26:22.861Z,15.43
2022-11-05T02:29:20.042Z,15.48
2022-11-05T02:32:07.901Z,15.30
2022-11-05T02:35:22.865Z,16.20
2022-11-05T02:38:13.091Z,16.65
2022-11-05T02:41:41.734Z,15.87
2022-11-05T02:44:44.904Z,14.07
2022-11-05T02:47:42.782Z,12.57
2022-11-05T02:50:37.220Z,13.07
2022-11-05T02:53:31.498Z,13.20
2022-11-05T02:56:24.053Z,10.20
2022-11-05T02:59:09.121Z,10.55
2022-11-05T03:01:55.181Z,9.75
2022-11-05T03:04:40.903Z,8.73
2022-11-05T03:07:44.855Z,9.02
2022-11-05T03:10:49.588Z,9.43
2022-11-05T03:13:59.162Z,8.95
2022-11-05T03:16:53.934Z,8.77
2022-11-05T03:19:54.158Z,8.55
2022-11-05T03:22:47.293Z,8.98
2022-11-05T03:25:38.902Z,7.90
2022-11-05T03:28:27.840Z,8.20
2022-11-05T03:31:14.737Z,8.00
2022-11-05T03:34:02.159Z,8.45
2022-11-05T03:36:52.080Z,7.88
2022-11-05T03:42:36.989Z,8.02
2022-11-05T03:45:26.611Z,8.53
2022-11-05T03:48:14.191Z,8.73
2022-11-05T03:51:17.728Z,7.97
2022-11-05T03:54:04.875Z,7.57
2022-11-05T03:57:01.287Z,7.90
2022-11-05T03:59:49.019Z,8.02
2022-11-05T04:02:34.406Z,7.80
2022-11-05T04:05:19.551Z,7.82
2022-11-05T04:08:43.239Z,8.60
2022-11-05T04:11:46.971Z,7.53
2022-11-05T04:14:32.244Z,7.47
2022-11-05T04:17:17.484Z,7.95
2022-11-05T04:20:21.115Z,8.13
2022-11-05T04:23:25.323Z,7.57
2022-11-05T04:26:10.474Z,8.43
2022-11-05T04:29:14.355Z,8.00
2022-11-05T04:31:59.684Z,7.75
2022-11-05T04:34:44.800Z,8.27
2022-11-05T04:37:30.139Z,8.13
2022-11-05T04:40:15.105Z,8.70
2022-11-05T04:43:00.463Z,9.48
2022-11-05T04:45:45.733Z,14.13
2022-11-05T04:48:31.035Z,12.52
2022-11-05T04:51:16.831Z,13.80
2022-11-05T04:54:01.684Z,15.20
2022-11-05T04:56:46.927Z,15.82
2022-11-05T04:59:31.933Z,15.68
2022-11-05T05:02:16.876Z,14.38
2022-11-05T05:05:03.108Z,15.95
2022-11-05T05:07:48.131Z,17.50
2022-11-05T05:10:33.032Z,18.05
2022-11-05T05:13:17.999Z,17.80
2022-11-05T05:16:08.075Z,16.88
2022-11-05T05:18:54.175Z,16.88
2022-11-05T05:21:39.373Z,15.77
2022-11-05T05:24:24.950Z,14.90
2022-11-05T05:27:10.192Z,12.70
2022-11-05T05:29:59.446Z,11.68
2022-11-05T05:32:44.584Z,10.90
2022-11-05T05:35:30.048Z,10.95
2022-11-05T05:38:14.896Z,10.20
2022-11-05T05:41:00.643Z,12.18
2022-11-05T05:43:45.719Z,15.80
2022-11-05T05:46:30.941Z,15.43
2022-11-05T05:49:16.248Z,14.88
2022-11-05T05:52:01.091Z,15.15
2022-11-05T05:54:45.940Z,11.82
2022-11-05T05:57:30.891Z,10.40
2022-11-05T06:00:16.124Z,9.32
2022-11-05T06:03:01.140Z,10.52
2022-11-05T06:05:46.337Z,13.50
2022-11-05T06:08:31.984Z,15.85
2022-11-05T06:11:17.148Z,14.93
2022-11-05T06:14:02.343Z,16.45
2022-11-05T06:16:47.303Z,17.58
2022-11-05T06:19:32.255Z,17.10
2022-11-05T06:22:17.231Z,17.35
2022-11-05T06:25:02.647Z,14.63
2022-11-05T06:27:47.890Z,16.23
2022-11-05T06:30:33.153Z,14.57
2022-11-05T06:33:18.390Z,14.32
2022-11-05T06:36:04.919Z,14.68
2022-11-05T06:38:50.130Z,15.32
2022-11-05T06:41:45.662Z,14.05
2022-11-05T06:44:40.304Z,13.73
2022-11-05T06:47:25.232Z,14.55
2022-11-05T06:50:10.512Z,14.63
2022-11-05T06:53:00.829Z,15.77
2022-11-05T06:55:47.827Z,15.05
2022-11-05T06:58:33.812Z,15.75
2022-11-05T07:01:19.225Z,17.27
2022-11-05T07:04:04.480Z,16.35
2022-11-05T07:06:49.708Z,17.30
2022-11-05T07:09:38.432Z,17.58
2022-11-05T07:12:23.399Z,16.73
2022-11-05T07:15:09.613Z,16.73
2022-11-05T07:17:59.793Z,17.83
2022-11-05T07:23:29.702Z,17.92
2022-11-05T07:26:14.995Z,19.30
2022-11-05T07:29:00.373Z,18.58
2022-11-05T07:31:46.937Z,17.65
2022-11-05T07:34:32.458Z,18.88
2022-11-05T07:37:17.563Z,17.30
2022-11-05T07:40:03.180Z,18.48
2022-11-05T07:42:50.815Z,20.65
2022-11-05T07:45:36.014Z,18.73
2022-11-05T07:48:21.014Z,19.88
2022-11-05T07:51:06.207Z,19.00
2022-11-05T07:53:51.167Z,19.05
2022-11-05T07:56:36.663Z,19.88
2022-11-05T07:59:21.672Z,20.45
2022-11-05T08:02:09.845Z,19.58
2022-11-05T08:04:55.208Z,19.83
2022-11-05T08:07:40.293Z,20.40
2022-11-05T08:10:25.824Z,19.08
2022-11-05T08:13:12.941Z,19.42
2022-11-05T08:15:58.533Z,19.92
2022-11-05T08:18:44.620Z,19.35
2022-11-05T08:21:30.938Z,19.92
2022-11-05T08:24:15.788Z,21.02
2022-11-05T08:27:00.677Z,21.00
2022-11-05T08:29:45.953Z,19.65
2022-11-05T08:32:31.031Z,20.00
2022-11-05T08:35:15.902Z,18.52
2022-11-05T08:38:03.144Z,13.70
2022-11-05T08:40:57.417Z,17.83
2022-11-05T08:43:42.375Z,18.48
2022-11-05T08:46:27.415Z,17.60
2022-11-05T08:49:12.287Z,15.38
2022-11-05T08:51:57.569Z,15.75
2022-11-05T08:54:43.605Z,14.85
2022-11-05T08:57:28.709Z,15.77
2022-11-05T09:00:15.153Z,15.52
2022-11-05T09:03:04.133Z,15.60
2022-11-05T09:05:49.103Z,16.90
2022-11-05T09:08:34.365Z,16.42
2022-11-05T09:11:19.449Z,15.95
2022-11-05T09:14:04.416Z,15.43
2022-11-05T09:16:49.429Z,15.98
2022-11-05T09:19:39.398Z,16.25
2022-11-05T09:22:24.766Z,16.15
2022-11-05T09:25:10.134Z,16.30
2022-11-05T09:28:14.632Z,16.38
2022-11-05T09:31:06.065Z,15.20
2022-11-05T09:33:50.835Z,15.65
2022-11-05T09:36:35.878Z,16.45
2022-11-05T09:39:20.963Z,15.30
2022-11-05T09:42:11.746Z,15.77
2022-11-05T09:45:13.423Z,15.45
2022-11-05T09:48:15.735Z,14.75
2022-11-05T09:51:00.931Z,14.30
2022-11-05T09:53:46.567Z,14.30
2022-11-05T09:56:37.280Z,14.20
2022-11-05T09:59:43.520Z,14.60
2022-11-05T10:02:33.150Z,12.82
2022-11-05T10:08:29.743Z,13.40
2022-11-05T10:11:57.092Z,13.65
2022-11-05T10:14:47.615Z,14.40
2022-11-05T10:17:39.160Z,14.13
2022-11-05T10:20:31.123Z,15.05
2022-11-05T10:23:22.304Z,15.50
2022-11-05T10:26:13.496Z,15.38
2022-11-05T10:28:58.856Z,16.38
2022-11-05T10:31:44.521Z,14.73
2022-11-05T10:34:33.624Z,15.70
2022-11-05T10:37:20.452Z,16.17
2022-11-05T10:40:14.033Z,17.25
2022-11-05T10:43:09.868Z,16.00
2022-11-05T10:45:59.778Z,16.92
2022-11-05T10:49:06.551Z,16.38
2022-11-05T10:52:00.407Z,15.32
2022-11-05T10:54:46.906Z,17.10
2022-11-05T10:57:38.061Z,16.35
2022-11-05T11:00:28.315Z,17.50
2022-11-05T11:03:43.246Z,16.35
2022-11-05T11:06:31.460Z,17.77
2022-11-05T11:09:35.705Z,17.05
2022-11-05T11:12:24.538Z,17.10
2022-11-05T11:15:32.762Z,18.15
2022-11-05T11:18:26.150Z,16.92
2022-11-05T11:21:16.533Z,17.70
2022-11-05T11:24:04.753Z,17.38
2022-11-05T11:26:50.146Z,17.77
2022-11-05T11:29:41.125Z,16.25
2022-11-05T11:32:36.137Z,14.35
2022-11-05T11:35:23.988Z,14.82
2022-11-05T11:38:16.250Z,5.28
2022-11-05T11:41:09.189Z,3.17
2022-11-05T11:43:59.827Z,2.17
2022-11-05T11:46:49.508Z,2.65
2022-11-05T11:50:00.470Z,1.92
2022-11-05T11:52:45.455Z,1.80
2022-11-05T11:55:30.802Z,2.47
2022-11-05T11:58:15.801Z,1.90
2022-11-05T12:01:13.307Z,1.42
2022-11-05T12:04:10.336Z,1.60
2022-11-05T12:07:20.095Z,1.80
2022-11-05T12:10:23.998Z,1.52
2022-11-05T12:13:33.345Z,1.80
2022-11-05T12:16:29.987Z,1.50
2022-11-05T12:19:43.655Z,2.17
2022-11-05T12:23:05.867Z,1.83
2022-11-05T12:26:03.968Z,1.50
2022-11-05T12:29:18.804Z,1.58
2022-11-05T12:32:04.111Z,1.85
2022-11-05T12:35:18.889Z,1.90
2022-11-05T12:38:25.476Z,1.60
2022-11-05T12:41:37.009Z,1.63
2022-11-05T12:44:40.609Z,1.77
2022-11-05T12:47:31.448Z,2.33
2022-11-05T12:50:31.224Z,2.20
2022-11-05T12:53:31.643Z,2.30
2022-11-05T12:56:30.422Z,2.08
2022-11-05T12:59:28.494Z,2.80
2022-11-05T13:02:25.985Z,3.47
2022-11-05T13:05:24.711Z,5.75
2022-11-05T13:08:23.319Z,3.70
2022-11-05T13:11:19.775Z,1.95
2022-11-05T13:14:14.877Z,2.72
2022-11-05T13:17:10.799Z,2.67
2022-11-05T13:20:19.131Z,3.25
2022-11-05T13:23:18.943Z,2.90
2022-11-05T13:26:27.242Z,1.90
2022-11-05T13:29:20.252Z,1.88
2022-11-05T13:32:26.551Z,1.77
2022-11-05T13:35:24.465Z,2.45
2022-11-05T13:38:37.096Z,2.33
2022-11-05T13:41:35.116Z,2.22
2022-11-05T13:44:38.358Z,2.63
2022-11-05T13:47:50.425Z,1.70
2022-11-05T13:50:51.038Z,3.15
2022-11-05T13:53:45.336Z,2.65
2022-11-05T13:56:55.251Z,2.40
2022-11-05T14:03:16.295Z,2.72
2022-11-05T14:06:10.903Z,2.65
2022-11-05T14:09:00.575Z,2.13
2022-11-05T14:11:52.060Z,2.83
2022-11-05T14:14:58.438Z,2.28
2022-11-05T14:18:02.576Z,3.00
2022-11-05T14:21:26.042Z,2.85
2022-11-05T14:24:23.429Z,3.13
2022-11-05T14:27:09.775Z,2.85
2022-11-05T14:29:55.545Z,3.03
2022-11-05T14:32:48.613Z,3.30
2022-11-05T14:35:38.484Z,3.25
2022-11-05T14:38:28.230Z,3.05
2022-11-05T14:41:13.680Z,2.72
2022-11-05T14:44:04.964Z,2.28
2022-11-05T14:46:53.244Z,2.90
2022-11-05T14:49:50.996Z,1.98
2022-11-05T14:52:38.437Z,1.48
2022-11-05T14:55:36.063Z,2.00
2022-11-05T14:58:28.891Z,2.20
2022-11-05T15:01:14.044Z,1.52
2022-11-05T15:04:37.169Z,1.88
2022-11-05T15:07:22.133Z,1.83
2022-11-05T15:10:14.214Z,2.00
2022-11-05T15:13:06.031Z,1.88
2022-11-05T15:15:51.833Z,1.77
2022-11-05T15:18:44.007Z,1.60
2022-11-05T15:21:34.393Z,1.95
2022-11-05T15:24:20.393Z,2.05
2022-11-05T15:27:26.708Z,1.92
2022-11-05T15:30:21.529Z,2.58
2022-11-05T15:33:19.491Z,2.20
2022-11-05T15:36:27.965Z,2.42
2022-11-05T15:39:33.658Z,2.83
2022-11-05T15:42:22.362Z,2.90
2022-11-05T15:45:20.503Z,2.00
2022-11-05T15:48:19.253Z,2.10
2022-11-05T15:51:04.823Z,1.60
2022-11-05T15:54:23.701Z,2.15
2022-11-05T15:56:57.935Z,2.60
2022-11-05T15:59:47.056Z,2.22
2022-11-05T16:02:34.916Z,2.42
2022-11-05T16:05:20.854Z,2.47
2022-11-05T16:08:06.297Z,2.13
2022-11-05T16:10:54.991Z,2.80
2022-11-05T16:13:41.678Z,2.47
2022-11-05T16:16:33.887Z,2.45
2022-11-05T16:19:40.565Z,2.30
2022-11-05T16:22:43.648Z,2.45
2022-11-05T16:25:38.180Z,2.45
2022-11-05T16:28:25.686Z,2.50
2022-11-05T16:31:11.054Z,2.95
2022-11-05T16:33:57.070Z,2.22
2022-11-05T16:36:42.258Z,2.90
2022-11-05T16:39:27.574Z,2.40
2022-11-05T16:42:21.944Z,2.30
2022-11-05T16:45:10.113Z,1.83
2022-11-05T16:47:55.412Z,1.52
2022-11-05T16:50:42.240Z,1.40
2022-11-05T16:53:27.326Z,1.70
2022-11-05T16:56:21.076Z,1.45
2022-11-05T16:59:08.680Z,1.30
2022-11-05T17:01:56.020Z,1.48
2022-11-05T17:04:41.175Z,1.10
2022-11-05T17:07:27.487Z,1.75
2022-11-05T17:10:12.909Z,1.30
2022-11-05T17:12:57.863Z,1.90
2022-11-05T17:15:44.940Z,3.45
2022-11-05T17:18:30.200Z,4.32
2022-11-05T17:21:15.449Z,2.28
2022-11-05T17:24:00.415Z,2.65
2022-11-05T17:26:45.410Z,5.57
2022-11-05T17:29:30.561Z,16.88
2022-11-05T17:32:15.485Z,2.78
2022-11-05T17:35:00.529Z,1.52
2022-11-05T17:37:46.251Z,1.33
2022-11-05T17:40:34.666Z,1.60
2022-11-05T17:43:20.571Z,1.58
2022-11-05T17:46:08.967Z,1.30
2022-11-05T17:48:54.101Z,1.45
2022-11-05T17:51:39.481Z,1.58
2022-11-05T17:54:24.779Z,1.15
2022-11-05T17:57:10.192Z,1.20
2022-11-05T17:59:55.719Z,1.48
2022-11-05T18:02:41.029Z,1.33
2022-11-05T18:05:27.847Z,1.42
2022-11-05T18:08:13.086Z,1.10
2022-11-05T18:10:58.243Z,1.00
2022-11-05T18:13:43.517Z,1.08
2022-11-05T18:16:28.788Z,1.30
2022-11-05T18:19:13.872Z,1.52
2022-11-05T18:21:58.774Z,1.60
2022-11-05T18:24:44.461Z,1.52
2022-11-05T18:27:29.740Z,1.40
2022-11-05T18:30:15.899Z,2.05
2022-11-05T18:33:01.221Z,2.22
2022-11-05T18:35:46.518Z,1.73
2022-11-05T18:38:31.581Z,2.10
2022-11-05T18:41:16.826Z,2.17
2022-11-05T18:44:02.898Z,1.60
2022-11-05T18:46:58.220Z,1.70
2022-11-05T18:49:43.881Z,1.65
2022-11-05T18:52:31.514Z,1.92
2022-11-05T18:55:16.470Z,1.70
2022-11-05T18:58:01.766Z,1.77
2022-11-05T19:00:46.622Z,1.80
2022-11-05T19:03:31.917Z,2.15
2022-11-05T19:06:18.080Z,2.10
2022-11-05T19:09:05.190Z,2.97
2022-11-05T19:11:50.902Z,2.63
2022-11-05T19:14:36.417Z,4.63
2022-11-05T19:17:21.606Z,4.30
2022-11-05T19:20:07.444Z,12.75
2022-11-05T19:22:52.362Z,5.60
2022-11-05T19:25:37.874Z,3.78
2022-11-05T19:28:23.463Z,6.20
2022-11-05T19:31:14.183Z,4.78
2022-11-05T19:33:59.455Z,6.47
2022-11-05T19:36:44.383Z,7.82
2022-11-05T19:39:29.557Z,9.45
2022-11-05T19:42:14.444Z,9.18
2022-11-05T19:45:16.714Z,7.72
2022-11-05T19:48:05.589Z,10.48
2022-11-05T19:50:50.560Z,6.53
2022-11-05T19:53:37.710Z,3.58
2022-11-05T19:56:29.613Z,3.72
2022-11-05T19:59:15.094Z,5.43
2022-11-05T20:02:00.380Z,4.90
2022-11-05T20:04:45.845Z,7.28
2022-11-05T20:07:31.142Z,3.20
2022-11-05T20:10:16.657Z,3.13
2022-11-05T20:13:01.962Z,5.00
2022-11-05T20:15:47.331Z,3.75
2022-11-05T20:18:32.751Z,3.15
2022-11-05T20:21:18.828Z,2.72
2022-11-05T20:24:04.299Z,2.75
2022-11-05T20:26:49.658Z,2.70
2022-11-05T20:29:35.797Z,2.28
2022-11-05T20:32:21.244Z,2.30
2022-11-05T20:35:06.532Z,2.35
2022-11-05T20:37:54.086Z,2.40
2022-11-05T20:40:39.835Z,2.90
2022-11-05T20:43:30.137Z,2.40
2022-11-05T20:46:17.910Z,1.80
2022-11-05T20:49:03.341Z,1.40
2022-11-05T20:51:48.513Z,1.75
2022-11-05T20:54:43.513Z,1.89
2022-11-05T20:57:28.540Z,1.40
2022-11-05T21:00:14.482Z,1.38
2022-11-05T21:02:59.592Z,1.88
2022-11-05T21:05:46.648Z,1.65
2022-11-05T21:08:33.117Z,1.33
2022-11-05T21:11:19.138Z,1.10
2022-11-05T21:14:04.151Z,1.65
2022-11-05T21:16:49.154Z,1.38
2022-11-05T21:19:35.169Z,1.77
2022-11-05T21:22:20.323Z,2.25
2022-11-05T21:25:06.067Z,2.20
2022-11-05T21:27:51.343Z,2.15
2022-11-05T21:30:38.177Z,1.90
2022-11-05T21:33:23.528Z,2.20
2022-11-05T21:36:11.064Z,1.58
2022-11-05T21:38:56.267Z,1.80
2022-11-05T21:41:42.610Z,1.80
2022-11-05T21:44:27.807Z,1.67
2022-11-05T21:47:13.059Z,1.55
2022-11-05T21:49:58.227Z,1.20
2022-11-05T21:53:01.890Z,1.17
2022-11-05T21:56:10.172Z,1.20
2022-11-05T21:59:14.000Z,1.45
2022-11-05T22:02:02.528Z,1.23
2022-11-05T22:04:51.647Z,1.23
2022-11-05T22:07:39.192Z,0.90
2022-11-05T22:10:23.988Z,1.02
2022-11-05T22:13:09.001Z,0.90
2022-11-05T22:15:55.521Z,1.10
2022-11-05T22:18:40.430Z,1.08
2022-11-05T22:21:25.786Z,0.88
2022-11-05T22:24:11.124Z,0.80
2022-11-05T22:26:56.096Z,1.00
2022-11-05T22:29:41.455Z,0.77
2022-11-05T22:32:26.590Z,1.10
2022-11-05T22:35:11.621Z,0.90
2022-11-05T22:37:57.075Z,0.88
2022-11-05T22:40:42.381Z,0.82
2022-11-05T22:43:27.171Z,1.33
2022-11-05T22:46:18.578Z,1.15
2022-11-05T22:49:04.010Z,0.80
2022-11-05T22:51:50.318Z,0.70
2022-11-05T22:54:39.281Z,0.80
2022-11-05T22:57:24.663Z,1.52
2022-11-05T23:00:17.067Z,0.73
2022-11-05T23:03:03.074Z,1.10
2022-11-05T23:05:57.359Z,1.23
2022-11-05T23:09:00.800Z,0.90
2022-11-05T23:11:49.815Z,1.40
2022-11-05T23:14:36.510Z,1.75
2022-11-05T23:17:40.188Z,1.30
2022-11-05T23:20:44.047Z,0.88
2022-11-05T23:23:47.951Z,1.10
2022-11-05T23:26:49.916Z,1.20
2022-11-05T23:29:34.916Z,1.10
2022-11-05T23:32:26.981Z,0.60
2022-11-05T23:35:12.917Z,0.70
2022-11-05T23:38:16.695Z,0.80
2022-11-05T23:41:21.638Z,0.82
2022-11-05T23:44:27.532Z,0.85
2022-11-05T23:47:31.426Z,0.80
2022-11-05T23:50:16.748Z,0.80
2022-11-05T23:53:01.899Z,0.98
2022-11-05T23:55:47.223Z,1.00
2022-11-05T23:58:33.006Z,1.00
